ETEB 210156Z AUTO 35003KT 9999 OVC041 09/05 A3024 RMK AO2 SLP256 T00900054 $ ETEB 210056Z AUTO 00000KT 9999 OVC042 09/05 A3024 RMK AO2 SLP256 T00930051 $ ETEB 202356Z AUTO 01005KT 9999 BKN041 09/06 A3024 RMK AO2 SLP256 T00930055 10121 20093 52008 $ ETEB 202256Z AUTO 02004KT 9999 OVC041 10/05 A3023 RMK AO2 SLP253 T01000052 401360096 $ ETEB 202156Z AUTO 01006KT 9999 OVC041 10/06 A3022 RMK AO2 SLP250 T01040056 $ ETEB 202056Z AUTO 01005KT 9999 OVC042 11/06 A3021 RMK AO2 SLP246 T01060056 52013 $ ETEB 201956Z AUTO 36007KT 9999 OVC040 11/05 A3020 RMK AO2 SLP245 T01110054 $ ETEB 201856Z AUTO 01006KT 9999 OVC039 12/06 A3019 RMK AO2 SLP239 T01170062 $ ETEB 201756Z AUTO 02003KT 9999 OVC046 12/06 A3017 RMK AO2 SLP232 T01210062 10136 20121 52016 $ ETEB 201656Z AUTO 36004KT 9999 FEW037 OVC049 12/06 A3015 RMK AO2 SLP226 T01240062 $ ETEB 201556Z AUTO 03005KT 9999 BKN033 13/06 A3013 RMK AO2 SLP219 T01270061 $ ETEB 201456Z AUTO 03004KT 9999 BKN033 13/06 A3012 RMK AO2 SLP215 T01290060 52005 $ ETEB 201356Z AUTO 04004KT 9999 OVC033 13/06 A3012 RMK AO2 SLP215 T01320063 $ ETEB 201256Z AUTO 05007KT 9999 BKN031 13/07 A3011 RMK AO2 SLP210 T01340067 $ ETEB 201156Z AUTO 35004KT 9999 FEW036 SCT049 SCT170 13/06 A3011 RMK AO2 SLP210 T01330062 10136 20096 50001 $ ETEB 201056Z AUTO 09005KT 9999 SCT048 SCT210 13/07 A3011 RMK AO2 SLP210 T01250065 $ ETEB 200956Z AUTO 04006KT 9999 BKN047 12/06 A3011 RMK AO2 SLP212 T01150062 $ ETEB 200856Z AUTO 06006KT 9999 OVC044 11/07 A3010 RMK AO2 SLP208 T01070066 $ ETEB 200756Z AUTO 05006KT 9999 SCT016 BKN041 10/07 A3009 RMK AO2 SLP205 T00990066 $ ETEB 200711Z AUTO 05007KT 9999 OVC015 10/07 A3008 RMK AO2 SLP202 $ ETEB 200656Z AUTO 03005KT 9999 OVC014 10/07 A3008 RMK AO2 SLP202 T00960070 $ ETEB 200556Z AUTO 03004KT 9999 BKN014 OVC038 10/08 A3006 RMK AO2 BKN V OVC SLP195 T00960075 10103 20096 52009 $ ETEB 200456Z AUTO 01003KT 9999 BKN014 OVC038 10/08 A3005 RMK AO2 CIG 014V038 BKN V SCT SLP189 T00960077 $ ETEB 200356Z AUTO 00000KT 9999 FEW015 OVC037 10/08 A3004 RMK AO2 SLP184 T00970076 $ ETEB 200256Z AUTO 07004KT 9999 OVC036 10/08 A3003 RMK AO2 SLP180 T00970078 50002 $ ETEB 200156Z AUTO 00000KT 9999 FEW015 OVC033 10/08 A3004 RMK AO2 SLP184 T00990077 $ ETEB 200111Z AUTO 06004KT 9999 SCT014 OVC034 10/08 A3004 RMK AO2 SLP184 $ ETEB 200056Z AUTO 04004KT 9999 BKN014 OVC034 10/08 A3004 RMK AO2 CIG 014V034 BKN V SCT SLP184 T01010077 $ ETEB 200026Z AUTO 03005KT 9999 SCT015 OVC033 10/08 A3003 RMK AO2 SLP180 $ ETEB 192356Z AUTO 36004KT 9999 BKN016 OVC034 10/08 A3003 RMK AO2 SLP182 T01030077 10126 20103 52006 $ ETEB 192311Z AUTO 02005KT 9999 SCT024 OVC035 11/08 A3002 RMK AO2 SLP177 $ ETEB 192256Z AUTO 03005KT 9999 BKN024 OVC037 11/08 A3002 RMK AO2 BKN V OVC SLP177 T01060080 401680078 $ ETEB 192211Z AUTO 03006KT 9999 BKN022 OVC039 11/08 A3002 RMK AO2 SLP177 $ ETEB 192156Z AUTO 03003KT 9999 SCT022 OVC039 11/08 A3002 RMK AO2 SLP177 T01070079 $ ETEB 192056Z AUTO 01006KT 9999 OVC041 11/08 A3001 RMK AO2 SLP178 T01110081 51010 $ ETEB 191956Z AUTO 03005KT 9999 OVC041 12/09 A3001 RMK AO2 SLP178 T01150085 $ ETEB 191856Z AUTO 04008KT 9999 OVC036 12/09 A2999 RMK AO2 SLP171 T01200088 $ ETEB 191756Z AUTO 02006KT 9999 OVC035 13/09 A2998 RMK AO2 SLP167 T01260091 10168 20126 53009 $ ETEB 191656Z AUTO 02008KT 9999 CLR 14/09 A2996 RMK AO2 SLP160 T01360092 $ ETEB 191556Z AUTO 03009KT 9999 BKN050 15/10 A2995 RMK AO2 SLP155 T01510101 $ ETEB 191456Z AUTO 02008KT 9999 FEW031 BKN050 15/10 A2995 RMK AO2 SLP155 T01520100 55002 $

METAR Messwerte

Zurück zur Übersicht

Ort
m ü. NN
Zeit Temperatur Taupunkt Rel.
Luftfeuchte
Luftdruck:
Altimeter
NN
Station
Wind in Beaufort
(Knoten)
Sichtweite
(Meter)
Wolken
(Meter über Grund)
Wettererscheinung
Ansbach
467
Di 21.09. 03:569576 %1024
1025
969
N 2 (3)>= 10000Bedeckt (1200) 
Ansbach
467
Di 21.09. 02:569576 %1024
1025
969
Windstill>= 10000Bedeckt (1300) 
Ansbach
467
Di 21.09. 01:569681 %1024
1025
969
N 2 (5)>= 10000Stark bewölkt (1200) 
Ansbach
467
Di 21.09. 00:5610571 %1024
1025
969
NNO 2 (4)>= 10000Bedeckt (1200) 
Ansbach
467
Mo 20.09. 23:5610676 %1023
1024
968
N 2 (6)>= 10000Bedeckt (1200) 
Ansbach
467
Mo 20.09. 22:5611671 %1023
1024
968
N 2 (5)>= 10000Bedeckt (1300) 
Ansbach
467
Mo 20.09. 21:5611566 %1023
1024
968
N 3 (7)>= 10000Bedeckt (1200) 
Ansbach
467
Mo 20.09. 20:5612667 %1022
1023
967
N 2 (6)>= 10000Bedeckt (1200) 
Ansbach
467
Mo 20.09. 19:5612667 %1022
1023
967
NNO 2 (3)>= 10000Bedeckt (1400) 
Ansbach
467
Mo 20.09. 18:5612667 %1021
1022
966
N 2 (4)>= 10000Bedeckt (1500)
Leicht bewölkt (1100)
 
Ansbach
467
Mo 20.09. 17:5613662 %1020
1020
965
NNO 2 (5)>= 10000Stark bewölkt (1000) 
Ansbach
467
Mo 20.09. 16:5613662 %1020
1020
965
NNO 2 (4)>= 10000Stark bewölkt (1000) 
Ansbach
467
Mo 20.09. 15:5613662 %1020
1020
965
NO 2 (4)>= 10000Bedeckt (1000) 
Ansbach
467
Mo 20.09. 14:5613767 %1020
1020
965
NO 3 (7)>= 10000Stark bewölkt (940) 
Ansbach
467
Mo 20.09. 13:5613662 %1020
1020
965
N 2 (4)>= 10000Wolkig (5200)
Wolkig (1500)
Leicht bewölkt (1100)
 
Ansbach
467
Mo 20.09. 12:5613767 %1020
1020
965
O 2 (5)>= 10000Wolkig (6400)
Wolkig (1500)
 
Ansbach
467
Mo 20.09. 11:5612667 %1020
1021
965
NO 2 (6)>= 10000Stark bewölkt (1400) 
Ansbach
467
Mo 20.09. 10:5611776 %1019
1020
964
ONO 2 (6)>= 10000Bedeckt (1300) 
Ansbach
467
Mo 20.09. 09:5610782 %1019
1020
964
NO 2 (6)>= 10000Stark bewölkt (1200)
Wolkig (490)
 
Ansbach
467
Mo 20.09. 09:1110782 %1019
1020
964
NO 3 (7)>= 10000Bedeckt (460) 
Ansbach
467
Mo 20.09. 08:5610782 %1019
1020
964
NNO 2 (5)>= 10000Bedeckt (430) 
Ansbach
467
Mo 20.09. 07:5610887 %1018
1019
963
NNO 2 (4)>= 10000Bedeckt (1200)
Stark bewölkt (430)
 
Ansbach
467
Mo 20.09. 06:5610887 %1018
1019
963
N 2 (3)>= 10000Bedeckt (1200)
Stark bewölkt (430)
 
Ansbach
467
Mo 20.09. 05:5610887 %1017
1018
962
Windstill>= 10000Bedeckt (1100)
Leicht bewölkt (460)
 
Ansbach
467
Mo 20.09. 04:5610887 %1017
1018
962
ONO 2 (4)>= 10000Bedeckt (1100) 
Ansbach
467
Mo 20.09. 03:5610887 %1017
1018
962
Windstill>= 10000Bedeckt (1000)
Leicht bewölkt (460)
 
Ansbach
467
Mo 20.09. 03:1110887 %1017
1018
962
ONO 2 (4)>= 10000Bedeckt (1000)
Wolkig (430)
 
Ansbach
467
Mo 20.09. 02:5610887 %1017
1018
962
NO 2 (4)>= 10000Bedeckt (1000)
Stark bewölkt (430)
 
Ansbach
467
Mo 20.09. 02:2610887 %1017
1018
962
NNO 2 (5)>= 10000Bedeckt (1000)
Wolkig (460)
 
Ansbach
467
Mo 20.09. 01:5610887 %1017
1018
962
N 2 (4)>= 10000Bedeckt (1000)
Stark bewölkt (490)
 
Ansbach
467
Mo 20.09. 01:1111882 %1017
1018
962
NNO 2 (5)>= 10000Bedeckt (1100)
Wolkig (730)
 
Ansbach
467
Mo 20.09. 00:5611882 %1017
1018
962
NNO 2 (5)>= 10000Bedeckt (1100)
Stark bewölkt (730)
 
Ansbach
467
Mo 20.09. 00:1111882 %1017
1018
962
NNO 2 (6)>= 10000Bedeckt (1200)
Stark bewölkt (670)
 
Ansbach
467
So 19.09. 23:5611882 %1017
1018
962
NNO 2 (3)>= 10000Bedeckt (1200)
Wolkig (670)
 
Ansbach
467
So 19.09. 22:5611882 %1016
1017
961
N 2 (6)>= 10000Bedeckt (1200) 
Ansbach
467
So 19.09. 21:5612982 %1016
1017
961
NNO 2 (5)>= 10000Bedeckt (1200) 
Ansbach
467
So 19.09. 20:5612982 %1016
1017
961
NO 3 (8)>= 10000Bedeckt (1100) 
Ansbach
467
So 19.09. 19:5613977 %1015
1015
960
NNO 2 (6)>= 10000Bedeckt (1100) 
Ansbach
467
So 19.09. 18:5614972 %1015
1015
960
NNO 3 (8)>= 10000  
Ansbach
467
So 19.09. 17:56151072 %1014
1014
959
NNO 3 (9)>= 10000Stark bewölkt (1500) 
Ansbach
467
So 19.09. 16:56151072 %1014
1014
959
NNO 3 (8)>= 10000Stark bewölkt (1500)
Leicht bewölkt (940)
 

Altimeter: Einstellung am Altimeter (Höhenmesser), die Höhe 0 muss auf diesen Luftdruckwert zeigen, damit das Gerät die Stationshöhe richtig anzeigt.

NN: Luftdruck reduziert auf "Normal Null", auf Meereshöhe, dieser von der Temperatur abhängige Wert wird bisweilen unkorrekt einfach als "Luftdruck" bezeichnet. Eigentlich nur eine fiktive Größe, die es erlaubt, Stationen auf unterschiedlichen Höhen miteinander zu vergleichen.

Station: Realer Luftdruck an der Station.